createdAt,value
2022-11-07T00:02:13.129Z,4.80
2022-11-07T00:05:40.152Z,2.60
2022-11-07T00:09:02.340Z,5.00
2022-11-07T00:12:24.607Z,5.32
2022-11-07T00:15:46.920Z,4.38
2022-11-07T00:19:10.105Z,4.32
2022-11-07T00:22:32.368Z,4.30
2022-11-07T00:25:54.611Z,5.97
2022-11-07T00:29:19.550Z,6.10
2022-11-07T00:32:41.784Z,3.17
2022-11-07T00:36:04.605Z,3.00
2022-11-07T00:39:26.820Z,5.80
2022-11-07T00:42:49.177Z,5.13
2022-11-07T00:46:13.512Z,4.40
2022-11-07T00:49:35.745Z,5.70
2022-11-07T00:52:58.035Z,8.00
2022-11-07T00:56:23.159Z,4.35
2022-11-07T00:59:45.417Z,7.80
2022-11-07T01:03:26.039Z,7.60
2022-11-07T01:06:48.388Z,6.07
2022-11-07T01:10:10.600Z,7.47
2022-11-07T01:13:33.645Z,4.60
2022-11-07T01:16:55.921Z,7.20
2022-11-07T01:20:18.181Z,6.07
2022-11-07T01:23:40.379Z,4.32
2022-11-07T01:27:02.633Z,3.33
2022-11-07T01:30:24.884Z,5.45
2022-11-07T01:33:47.489Z,3.65
2022-11-07T01:37:09.721Z,5.43
2022-11-07T01:40:33.845Z,4.25
2022-11-07T01:43:58.893Z,5.20
2022-11-07T01:47:23.395Z,9.10
2022-11-07T01:50:45.603Z,4.00
2022-11-07T01:54:08.583Z,4.05
2022-11-07T01:57:46.984Z,6.22
2022-11-07T02:01:09.209Z,4.72
2022-11-07T02:04:31.851Z,5.40
2022-11-07T02:07:54.868Z,5.88
2022-11-07T02:11:17.980Z,5.32
2022-11-07T02:14:42.357Z,5.63
2022-11-07T02:18:04.929Z,5.43
2022-11-07T02:21:44.031Z,4.78
2022-11-07T02:25:15.686Z,3.60
2022-11-07T02:28:39.444Z,4.13
2022-11-07T02:32:02.740Z,3.10
2022-11-07T02:35:36.710Z,5.28
2022-11-07T02:39:00.373Z,5.25
2022-11-07T02:42:23.739Z,6.20
2022-11-07T02:45:48.283Z,5.03
2022-11-07T02:49:10.504Z,4.10
2022-11-07T02:52:32.670Z,4.35
2022-11-07T02:55:54.904Z,5.65
2022-11-07T02:59:17.092Z,6.35
2022-11-07T03:02:40.062Z,2.60
2022-11-07T03:06:02.524Z,8.20
2022-11-07T03:09:24.749Z,3.70
2022-11-07T03:12:46.994Z,8.32
2022-11-07T03:16:11.191Z,5.47
2022-11-07T03:19:33.388Z,3.95
2022-11-07T03:22:55.652Z,8.15
2022-11-07T03:26:17.943Z,2.28
2022-11-07T03:29:40.192Z,4.43
2022-11-07T03:33:02.584Z,2.03
2022-11-07T03:36:24.827Z,1.85
2022-11-07T03:39:47.083Z,5.47
2022-11-07T03:43:09.291Z,4.13
2022-11-07T03:46:31.511Z,1.98
2022-11-07T03:49:53.734Z,3.75
2022-11-07T03:53:19.455Z,3.45
2022-11-07T03:56:44.593Z,1.80
2022-11-07T04:00:07.390Z,5.57
2022-11-07T04:03:34.060Z,6.88
2022-11-07T04:06:56.348Z,5.55
2022-11-07T04:10:18.674Z,5.55
2022-11-07T04:14:03.845Z,2.83
2022-11-07T04:17:26.964Z,3.65
2022-11-07T04:20:49.156Z,4.07
2022-11-07T04:24:11.365Z,5.72
2022-11-07T04:27:46.871Z,2.28
2022-11-07T04:34:31.177Z,5.80
2022-11-07T04:37:53.519Z,4.93
2022-11-07T04:41:20.638Z,5.63
2022-11-07T04:44:43.051Z,4.47
2022-11-07T04:48:06.077Z,2.13
2022-11-07T04:51:28.302Z,3.17
2022-11-07T04:54:50.479Z,7.68
2022-11-07T04:58:12.727Z,4.88
2022-11-07T05:01:35.013Z,4.47
2022-11-07T05:04:57.263Z,5.60
2022-11-07T05:08:19.477Z,2.88
2022-11-07T05:11:41.695Z,5.10
2022-11-07T05:15:04.251Z,3.50
2022-11-07T05:18:26.478Z,2.65
2022-11-07T05:22:08.627Z,2.22
2022-11-07T05:25:30.880Z,4.38
2022-11-07T05:28:53.102Z,5.95
2022-11-07T05:32:15.490Z,3.05
2022-11-07T05:35:38.219Z,3.25
2022-11-07T05:39:00.468Z,2.78
2022-11-07T05:42:22.681Z,4.00
2022-11-07T05:45:44.898Z,7.50
2022-11-07T05:49:07.160Z,2.88
2022-11-07T05:52:29.455Z,3.20
2022-11-07T05:55:52.590Z,3.67
2022-11-07T05:59:15.196Z,2.83
2022-11-07T06:02:37.526Z,4.05
2022-11-07T06:06:00.051Z,3.30
2022-11-07T06:09:22.247Z,3.03
2022-11-07T06:12:44.469Z,3.95
2022-11-07T06:16:07.189Z,5.90
2022-11-07T06:19:29.441Z,3.17
2022-11-07T06:22:51.680Z,5.65
2022-11-07T06:26:14.124Z,3.65
2022-11-07T06:29:36.299Z,4.85
2022-11-07T06:33:07.156Z,2.90
2022-11-07T06:36:29.314Z,4.63
2022-11-07T06:39:51.593Z,7.10
2022-11-07T06:43:16.218Z,6.57
2022-11-07T06:46:38.711Z,8.68
2022-11-07T06:50:00.943Z,6.28
2022-11-07T06:53:23.184Z,7.28
2022-11-07T06:56:45.411Z,6.30
2022-11-07T07:00:08.852Z,4.88
2022-11-07T07:03:31.332Z,7.25
2022-11-07T07:06:53.597Z,4.32
2022-11-07T07:10:16.275Z,5.20
2022-11-07T07:13:38.863Z,5.35
2022-11-07T07:17:01.057Z,2.78
2022-11-07T07:20:23.567Z,6.05
2022-11-07T07:23:45.753Z,5.43
2022-11-07T07:27:07.993Z,6.88
2022-11-07T07:30:30.351Z,8.68
2022-11-07T07:33:52.860Z,6.38
2022-11-07T07:37:15.136Z,2.88
2022-11-07T07:40:37.355Z,3.22
2022-11-07T07:43:59.593Z,5.53
2022-11-07T07:47:21.878Z,4.13
2022-11-07T07:50:44.195Z,6.32
2022-11-07T07:54:06.563Z,4.28
2022-11-07T07:57:29.968Z,4.38
2022-11-07T08:00:53.930Z,2.67
2022-11-07T08:04:16.273Z,9.73
2022-11-07T08:07:46.078Z,5.45
2022-11-07T08:11:08.947Z,3.83
2022-11-07T08:14:31.426Z,5.72
2022-11-07T08:17:53.811Z,9.05
2022-11-07T08:21:16.072Z,3.15
2022-11-07T08:24:38.305Z,2.88
2022-11-07T08:28:00.815Z,2.95
2022-11-07T08:31:23.046Z,4.47
2022-11-07T08:34:45.260Z,2.75
2022-11-07T08:38:07.477Z,5.32
2022-11-07T08:41:29.804Z,2.80
2022-11-07T08:44:52.018Z,5.72
2022-11-07T08:48:15.173Z,2.10
2022-11-07T08:51:37.377Z,4.50
2022-11-07T08:54:59.628Z,7.15
2022-11-07T08:58:25.887Z,2.28
2022-11-07T09:02:26.584Z,6.90
2022-11-07T09:05:33.589Z,5.10
2022-11-07T09:08:55.884Z,1.83
2022-11-07T09:12:18.260Z,1.65
2022-11-07T09:15:40.600Z,1.70
2022-11-07T09:19:03.745Z,5.45
2022-11-07T09:22:25.997Z,5.85
2022-11-07T09:25:48.436Z,1.65
2022-11-07T09:29:10.652Z,2.47
2022-11-07T09:32:46.134Z,3.05
2022-11-07T09:39:31.130Z,4.28
2022-11-07T09:43:05.617Z,9.45
2022-11-07T09:46:42.769Z,4.38
2022-11-07T09:50:42.198Z,2.38
2022-11-07T09:54:18.933Z,4.60
2022-11-07T09:57:41.604Z,2.13
2022-11-07T10:01:06.956Z,4.53
2022-11-07T10:04:29.715Z,2.38
2022-11-07T10:08:09.561Z,4.15
2022-11-07T10:11:59.558Z,6.85
2022-11-07T10:15:33.337Z,3.47
2022-11-07T10:19:16.287Z,9.35
2022-11-07T10:23:06.286Z,6.05
2022-11-07T10:26:30.500Z,3.33
2022-11-07T10:29:54.976Z,6.87
2022-11-07T10:33:24.406Z,5.97
2022-11-07T10:36:46.663Z,8.65
2022-11-07T10:40:18.411Z,6.05
2022-11-07T10:43:41.807Z,7.70
2022-11-07T10:47:19.023Z,5.05
2022-11-07T10:50:50.202Z,5.50
2022-11-07T10:54:32.663Z,5.70
2022-11-07T10:58:02.152Z,11.38
2022-11-07T11:01:27.908Z,6.35
2022-11-07T11:04:54.349Z,11.15
2022-11-07T11:08:22.444Z,9.32
2022-11-07T11:11:50.242Z,10.48
2022-11-07T11:15:15.189Z,5.30
2022-11-07T11:18:37.487Z,12.75
2022-11-07T11:22:00.105Z,11.95
2022-11-07T11:25:23.781Z,8.95
2022-11-07T11:29:09.154Z,8.50
2022-11-07T11:32:44.674Z,7.75
2022-11-07T11:39:47.805Z,5.82
2022-11-07T11:43:23.176Z,11.70
2022-11-07T11:46:52.710Z,8.70
2022-11-07T11:50:22.913Z,11.60
2022-11-07T11:53:45.284Z,6.90
2022-11-07T11:57:42.448Z,9.27
2022-11-07T12:01:33.540Z,9.77
2022-11-07T12:05:01.883Z,11.02
2022-11-07T12:09:04.730Z,3.55
2022-11-07T12:13:10.459Z,8.68
2022-11-07T12:16:59.928Z,10.55
2022-11-07T12:20:28.773Z,9.88
2022-11-07T12:24:09.389Z,11.77
2022-11-07T12:28:00.528Z,9.07
2022-11-07T12:31:34.144Z,12.45
2022-11-07T12:35:17.703Z,7.40
2022-11-07T12:39:03.387Z,11.25
2022-11-07T12:42:31.558Z,9.77
2022-11-07T12:46:14.463Z,13.65
2022-11-07T12:50:13.576Z,14.93
2022-11-07T12:53:47.953Z,9.70
2022-11-07T12:57:32.117Z,7.90
2022-11-07T13:00:55.221Z,9.75
2022-11-07T13:04:35.449Z,7.28
2022-11-07T13:08:04.048Z,7.13
2022-11-07T13:11:48.718Z,8.10
2022-11-07T13:15:13.026Z,3.22
2022-11-07T13:18:35.446Z,9.67
2022-11-07T13:22:07.947Z,7.70
2022-11-07T13:25:32.370Z,3.85
2022-11-07T13:28:59.855Z,8.07
2022-11-07T13:32:22.065Z,8.73
2022-11-07T13:35:54.797Z,9.35
2022-11-07T13:39:18.769Z,8.20
2022-11-07T13:42:43.835Z,9.55
2022-11-07T13:46:10.346Z,6.55
2022-11-07T13:49:44.345Z,10.13
2022-11-07T13:53:17.197Z,7.57
2022-11-07T13:57:23.314Z,7.88
2022-11-07T14:00:45.621Z,4.20
2022-11-07T14:04:19.953Z,8.32
2022-11-07T14:07:46.517Z,5.07
2022-11-07T14:11:23.277Z,7.03
2022-11-07T14:14:47.264Z,8.10
2022-11-07T14:18:17.285Z,6.40
2022-11-07T14:21:39.796Z,4.60
2022-11-07T14:25:02.083Z,4.90
2022-11-07T14:28:24.952Z,4.57
2022-11-07T14:31:47.426Z,5.95
2022-11-07T14:35:09.716Z,6.75
2022-11-07T14:38:31.978Z,6.32
2022-11-07T14:41:59.871Z,10.38
2022-11-07T14:45:55.038Z,6.47
2022-11-07T14:49:06.827Z,5.95
2022-11-07T14:52:39.218Z,8.65
2022-11-07T14:56:08.344Z,6.30
2022-11-07T14:59:33.521Z,6.43
2022-11-07T15:06:23.013Z,7.63
2022-11-07T15:09:45.247Z,4.47
2022-11-07T15:13:25.010Z,5.20
2022-11-07T15:16:50.364Z,4.65
2022-11-07T15:20:35.487Z,5.75
2022-11-07T15:23:59.628Z,5.43
2022-11-07T15:27:40.301Z,4.53
2022-11-07T15:31:02.618Z,4.22
2022-11-07T15:34:45.550Z,6.63
2022-11-07T15:38:21.386Z,7.63
2022-11-07T15:41:43.725Z,8.40
2022-11-07T15:45:06.295Z,6.30
2022-11-07T15:48:41.218Z,8.05
2022-11-07T15:52:03.789Z,9.30
2022-11-07T15:55:26.316Z,5.75
2022-11-07T15:58:49.316Z,4.38
2022-11-07T16:02:17.875Z,4.82
2022-11-07T16:05:41.128Z,5.72
2022-11-07T16:09:04.760Z,2.63
2022-11-07T16:12:26.959Z,5.50
2022-11-07T16:15:53.057Z,5.90
2022-11-07T16:19:21.860Z,5.22
2022-11-07T16:22:45.236Z,3.25
2022-11-07T16:26:09.366Z,8.45
2022-11-07T16:29:32.127Z,3.42
2022-11-07T16:32:54.385Z,3.75
2022-11-07T16:36:21.666Z,1.83
2022-11-07T16:39:44.453Z,12.43
2022-11-07T16:43:06.724Z,5.38
2022-11-07T16:46:34.373Z,3.97
2022-11-07T16:49:56.600Z,5.93
2022-11-07T16:53:20.068Z,5.32
2022-11-07T16:56:42.964Z,4.07
2022-11-07T17:00:05.760Z,2.55
2022-11-07T17:03:29.317Z,5.50
2022-11-07T17:06:51.542Z,3.88
2022-11-07T17:10:17.029Z,2.92
2022-11-07T17:13:39.540Z,3.65
2022-11-07T17:17:01.743Z,4.53
2022-11-07T17:20:49.298Z,4.05
2022-11-07T17:24:07.324Z,14.63
2022-11-07T17:27:29.537Z,25.95
2022-11-07T17:30:51.901Z,21.10
2022-11-07T17:34:14.363Z,13.30
2022-11-07T17:37:36.706Z,17.60
2022-11-07T17:41:17.091Z,15.95
2022-11-07T17:44:40.047Z,16.00
2022-11-07T17:48:02.267Z,17.55
2022-11-07T17:51:28.213Z,14.88
2022-11-07T17:54:50.521Z,16.13
2022-11-07T17:58:12.850Z,22.92
2022-11-07T18:01:37.553Z,17.35
2022-11-07T18:04:59.937Z,16.67
2022-11-07T18:08:38.457Z,18.20
2022-11-07T18:12:04.963Z,14.68
2022-11-07T18:15:27.258Z,12.07
2022-11-07T18:18:49.711Z,14.35
2022-11-07T18:22:11.910Z,10.63
2022-11-07T18:25:34.295Z,7.85
2022-11-07T18:29:13.401Z,12.63
2022-11-07T18:32:36.823Z,11.35
2022-11-07T18:36:01.131Z,7.10
2022-11-07T18:39:24.077Z,11.20
2022-11-07T18:42:46.340Z,6.88
2022-11-07T18:46:11.729Z,6.75
2022-11-07T18:49:34.062Z,6.20
2022-11-07T18:52:56.261Z,4.88
2022-11-07T18:56:19.075Z,6.65
2022-11-07T18:59:41.305Z,5.50
2022-11-07T19:03:03.557Z,8.57
2022-11-07T19:06:27.517Z,4.00
2022-11-07T19:09:49.799Z,3.60
2022-11-07T19:13:12.217Z,4.82
2022-11-07T19:16:34.440Z,8.88
2022-11-07T19:19:56.664Z,7.97
2022-11-07T19:23:19.116Z,4.93
2022-11-07T19:26:41.760Z,2.47
2022-11-07T19:30:08.256Z,5.30
2022-11-07T19:33:30.701Z,4.57
2022-11-07T19:36:52.932Z,4.18
2022-11-07T19:40:15.294Z,3.75
2022-11-07T19:43:38.763Z,3.10
2022-11-07T19:47:01.048Z,4.25
2022-11-07T19:50:24.029Z,5.93
2022-11-07T19:53:46.376Z,5.47
2022-11-07T19:57:08.624Z,4.63
2022-11-07T20:00:31.061Z,1.95
2022-11-07T20:03:54.679Z,4.45
2022-11-07T20:07:17.046Z,7.47
2022-11-07T20:10:45.823Z,14.52
2022-11-07T20:14:08.424Z,7.40
2022-11-07T20:17:30.721Z,6.65
2022-11-07T20:21:00.777Z,8.50
2022-11-07T20:24:23.156Z,5.07
2022-11-07T20:27:45.456Z,9.07
2022-11-07T20:31:12.985Z,3.63
2022-11-07T20:34:35.253Z,10.70
2022-11-07T20:37:57.464Z,7.05
2022-11-07T20:41:22.987Z,5.95
2022-11-07T20:44:45.240Z,4.65
2022-11-07T20:48:07.628Z,4.35
2022-11-07T20:51:30.169Z,8.60
2022-11-07T20:54:52.381Z,4.65
2022-11-07T20:58:14.696Z,6.10
2022-11-07T21:01:37.994Z,7.32
2022-11-07T21:05:17.095Z,4.97
2022-11-07T21:08:41.672Z,5.25
2022-11-07T21:12:04.049Z,3.85
2022-11-07T21:15:26.324Z,6.22
2022-11-07T21:18:49.154Z,4.93
2022-11-07T21:22:11.391Z,4.00
2022-11-07T21:25:44.507Z,3.25
2022-11-07T21:29:08.312Z,3.25
2022-11-07T21:32:30.782Z,1.88
2022-11-07T21:35:53.563Z,4.93
2022-11-07T21:39:16.313Z,2.35
2022-11-07T21:42:38.779Z,3.13
2022-11-07T21:46:11.457Z,1.73
2022-11-07T21:49:33.685Z,2.13
2022-11-07T21:52:56.043Z,4.95
2022-11-07T21:56:25.007Z,5.30
2022-11-07T21:59:47.279Z,1.48
2022-11-07T22:03:09.464Z,1.92
2022-11-07T22:06:34.209Z,2.40
2022-11-07T22:09:56.451Z,5.82
2022-11-07T22:13:19.504Z,7.07
2022-11-07T22:16:42.260Z,3.22
2022-11-07T22:20:05.540Z,2.63
2022-11-07T22:23:31.176Z,2.80
2022-11-07T22:26:57.176Z,2.58
2022-11-07T22:30:19.834Z,2.63
2022-11-07T22:33:42.342Z,3.97
2022-11-07T22:37:04.600Z,4.63
2022-11-07T22:40:26.852Z,2.33
2022-11-07T22:43:49.861Z,2.85
2022-11-07T22:47:12.077Z,4.40
2022-11-07T22:50:34.404Z,3.13
2022-11-07T22:53:58.643Z,3.92
2022-11-07T22:57:20.940Z,3.05
2022-11-07T23:00:43.261Z,3.55
2022-11-07T23:04:07.022Z,1.85
2022-11-07T23:07:29.238Z,2.45
2022-11-07T23:11:45.461Z,3.20
2022-11-07T23:15:01.075Z,2.30
2022-11-07T23:18:24.046Z,2.17
2022-11-07T23:21:46.435Z,4.30
2022-11-07T23:25:08.692Z,2.35
2022-11-07T23:28:30.952Z,1.20
2022-11-07T23:31:53.350Z,4.55
2022-11-07T23:35:15.640Z,3.20
2022-11-07T23:38:37.897Z,3.83
2022-11-07T23:42:00.099Z,2.38
2022-11-07T23:45:40.761Z,4.55
2022-11-07T23:49:21.576Z,1.58
2022-11-07T23:52:43.771Z,2.67
2022-11-07T23:56:07.137Z,2.38
2022-11-07T23:59:47.812Z,3.72
